createdAt,value
2023-03-06T00:00:20.864Z,97673.22
2023-03-06T00:01:22.098Z,97666.41
2023-03-06T00:02:23.376Z,97670.09
2023-03-06T00:03:25.044Z,97663.50
2023-03-06T00:04:26.339Z,97662.75
2023-03-06T00:05:27.797Z,97668.75
2023-03-06T00:06:29.033Z,97669.81
2023-03-06T00:07:30.216Z,97667.47
2023-03-06T00:08:31.436Z,97676.09
2023-03-06T00:09:33.915Z,97666.94
2023-03-06T00:10:35.130Z,97675.59
2023-03-06T00:11:36.443Z,97669.06
2023-03-06T00:12:37.650Z,97675.09
2023-03-06T00:13:38.843Z,97672.47
2023-03-06T00:14:40.155Z,97670.63
2023-03-06T00:15:41.909Z,97674.31
2023-03-06T00:16:43.100Z,97668.28
2023-03-06T00:17:44.405Z,97674.03
2023-03-06T00:18:45.646Z,97677.44
2023-03-06T00:19:46.912Z,97670.63
2023-03-06T00:20:48.213Z,97672.47
2023-03-06T00:21:49.577Z,97667.50
2023-03-06T00:22:51.361Z,97667.50
2023-03-06T00:23:52.602Z,97655.72
2023-03-06T00:24:53.934Z,97658.59
2023-03-06T00:25:55.235Z,97659.38
2023-03-06T00:26:56.508Z,97653.34
2023-03-06T00:27:57.768Z,97648.66
2023-03-06T00:28:59.429Z,97653.91
2023-03-06T00:30:01.060Z,97651.03
2023-03-06T00:31:02.557Z,97653.13
2023-03-06T00:32:03.878Z,97649.72
2023-03-06T00:33:05.176Z,97653.41
2023-03-06T00:34:06.424Z,97655.50
2023-03-06T00:35:07.878Z,97649.75
2023-03-06T00:36:09.290Z,97652.88
2023-03-06T00:37:10.589Z,97652.38
2023-03-06T00:38:12.174Z,97652.38
2023-03-06T00:39:13.488Z,97643.75
2023-03-06T00:40:16.455Z,97650.03
2023-03-06T00:41:17.756Z,97641.41
2023-03-06T00:42:19.395Z,97641.13
2023-03-06T00:43:20.641Z,97640.34
2023-03-06T00:44:21.869Z,97637.97
2023-03-06T00:45:23.223Z,97629.59
2023-03-06T00:46:24.583Z,97641.13
2023-03-06T00:47:25.849Z,97637.44
2023-03-06T00:48:27.080Z,97638.78
2023-03-06T00:49:28.299Z,97643.75
2023-03-06T00:50:29.520Z,97636.66
2023-03-06T00:51:30.792Z,97637.97
2023-03-06T00:52:32.194Z,97639.03
2023-03-06T00:53:33.422Z,97632.25
2023-03-06T00:54:35.983Z,97638.78
2023-03-06T00:55:37.261Z,97632.00
2023-03-06T00:56:38.493Z,97628.09
2023-03-06T00:57:40.146Z,97633.06
2023-03-06T00:58:41.397Z,97621.81
2023-03-06T00:59:42.728Z,97621.03
2023-03-06T01:00:44.590Z,97623.66
2023-03-06T01:01:46.019Z,97624.72
2023-03-06T01:02:48.296Z,97622.59
2023-03-06T01:03:49.533Z,97618.41
2023-03-06T01:04:50.773Z,97609.78
2023-03-06T01:05:52.007Z,97610.56
2023-03-06T01:06:53.338Z,97613.41
2023-03-06T01:07:54.615Z,97612.63
2023-03-06T01:08:55.831Z,97607.38
2023-03-06T01:10:01.941Z,97614.44
2023-03-06T01:11:03.293Z,97607.38
2023-03-06T01:12:05.096Z,97604.75
2023-03-06T01:13:06.592Z,97602.13
2023-03-06T01:14:07.836Z,97609.75
2023-03-06T01:15:09.392Z,97608.69
2023-03-06T01:16:14.534Z,97608.69
2023-03-06T01:17:15.790Z,97601.84
2023-03-06T01:18:17.750Z,97607.09
2023-03-06T01:19:19.256Z,97612.31
2023-03-06T01:20:20.469Z,97612.59
2023-03-06T01:21:21.663Z,97610.25
2023-03-06T01:22:22.885Z,97607.63
2023-03-06T01:23:24.102Z,97606.06
2023-03-06T01:24:25.366Z,97597.94
2023-03-06T01:25:27.055Z,97603.94
2023-03-06T01:26:28.365Z,97603.16
2023-03-06T01:27:29.598Z,97594.53
2023-03-06T01:28:30.893Z,97598.72
2023-03-06T01:29:32.173Z,97597.16
2023-03-06T01:30:33.550Z,97599.50
2023-03-06T01:31:35.686Z,97599.50
2023-03-06T01:32:37.310Z,97607.63
2023-03-06T01:33:38.792Z,97605.56
2023-03-06T01:34:40.054Z,97601.38
2023-03-06T01:35:41.309Z,97602.44
2023-03-06T01:36:42.593Z,97599.03
2023-03-06T01:37:44.448Z,97602.72
2023-03-06T01:38:45.698Z,97602.72
2023-03-06T01:39:49.099Z,97602.19
2023-03-06T01:40:50.354Z,97591.72
2023-03-06T01:41:51.633Z,97590.94
2023-03-06T01:42:52.916Z,97590.16
2023-03-06T01:43:54.241Z,97593.06
2023-03-06T01:45:08.792Z,97589.66
2023-03-06T01:46:31.047Z,97587.81
2023-03-06T01:47:32.609Z,97578.41
2023-03-06T01:48:33.952Z,97572.94
2023-03-06T01:49:37.182Z,97570.59
2023-03-06T01:50:38.512Z,97579.22
2023-03-06T01:51:42.544Z,97577.66
2023-03-06T01:52:46.908Z,97576.09
2023-03-06T01:53:49.455Z,97577.91
2023-03-06T01:54:54.311Z,97578.69
2023-03-06T01:55:57.264Z,97575.31
2023-03-06T01:57:24.770Z,97567.44
2023-03-06T01:58:26.015Z,97562.22
2023-03-06T01:59:28.431Z,97564.84
2023-03-06T02:00:30.571Z,97565.91
2023-03-06T02:01:32.336Z,97560.66
2023-03-06T02:02:33.727Z,97558.81
2023-03-06T02:03:36.132Z,97563.28
2023-03-06T02:04:39.320Z,97560.69
2023-03-06T02:05:41.313Z,97554.66
2023-03-06T02:06:43.526Z,97553.34
2023-03-06T02:07:45.762Z,97546.31
2023-03-06T02:08:49.542Z,97545.50
2023-03-06T02:09:50.836Z,97545.78
2023-03-06T02:10:58.043Z,97545.00
2023-03-06T02:12:00.368Z,97544.22
2023-03-06T02:13:01.770Z,97547.63
2023-03-06T02:14:03.245Z,97546.06
2023-03-06T02:15:04.834Z,97536.13
2023-03-06T02:16:07.112Z,97539.53
2023-03-06T02:17:10.388Z,97531.97
2023-03-06T02:18:13.399Z,97530.91
2023-03-06T02:19:19.077Z,97533.50
2023-03-06T02:20:34.068Z,97534.03
2023-03-06T02:21:36.416Z,97534.03
2023-03-06T02:22:44.267Z,97527.75
2023-03-06T02:23:51.427Z,97528.81
2023-03-06T02:24:52.605Z,97526.44
2023-03-06T02:25:54.309Z,97527.50
2023-03-06T02:26:56.457Z,97528.53
2023-03-06T02:27:57.763Z,97530.34
2023-03-06T02:28:59.057Z,97526.19
2023-03-06T02:30:04.699Z,97526.19
2023-03-06T02:31:06.607Z,97515.72
2023-03-06T02:32:07.890Z,97518.34
2023-03-06T02:33:16.501Z,97514.66
2023-03-06T02:34:20.840Z,97515.72
2023-03-06T02:35:23.743Z,97514.66
2023-03-06T02:36:25.011Z,97522.50
2023-03-06T02:37:27.364Z,97530.63
2023-03-06T02:38:31.570Z,97515.72
2023-03-06T02:39:33.862Z,97515.19
2023-03-06T02:40:35.363Z,97513.09
2023-03-06T02:41:36.681Z,97515.19
2023-03-06T02:42:38.006Z,97514.41
2023-03-06T02:43:40.637Z,97511.31
2023-03-06T02:44:42.003Z,97507.63
2023-03-06T02:45:45.059Z,97511.31
2023-03-06T02:46:46.343Z,97508.41
2023-03-06T02:47:47.674Z,97503.16
2023-03-06T02:48:48.890Z,97507.91
2023-03-06T02:49:50.140Z,97499.25
2023-03-06T02:50:52.452Z,97516.78
2023-03-06T02:51:53.697Z,97505.84
2023-03-06T02:52:54.938Z,97501.38
2023-03-06T02:53:56.214Z,97501.38
2023-03-06T02:54:57.426Z,97505.84
2023-03-06T02:55:58.692Z,97505.06
2023-03-06T02:57:00.037Z,97506.59
2023-03-06T02:58:01.790Z,97500.59
2023-03-06T02:59:03.755Z,97503.72
2023-03-06T03:00:05.367Z,97507.91
2023-03-06T03:01:06.610Z,97507.91
2023-03-06T03:02:08.636Z,97503.72
2023-03-06T03:03:09.915Z,97497.69
2023-03-06T03:04:11.143Z,97495.59
2023-03-06T03:05:13.629Z,97493.25
2023-03-06T03:06:17.392Z,97494.84
2023-03-06T03:07:19.150Z,97493.53
2023-03-06T03:08:21.317Z,97496.38
2023-03-06T03:09:25.131Z,97495.59
2023-03-06T03:10:26.681Z,97489.84
2023-03-06T03:11:28.090Z,97491.69
2023-03-06T03:12:29.790Z,97491.94
2023-03-06T03:13:31.051Z,97500.28
2023-03-06T03:14:32.717Z,97502.88
2023-03-06T03:15:34.052Z,97497.41
2023-03-06T03:16:36.276Z,97493.19
2023-03-06T03:17:39.739Z,97492.44
2023-03-06T03:18:41.484Z,97481.19
2023-03-06T03:19:42.749Z,97492.72
2023-03-06T03:20:44.001Z,97492.72
2023-03-06T03:21:45.341Z,97491.16
2023-03-06T03:22:50.411Z,97493.78
2023-03-06T03:23:51.612Z,97490.63
2023-03-06T03:24:52.872Z,97490.38
2023-03-06T03:25:55.337Z,97490.63
2023-03-06T03:26:56.679Z,97486.16
2023-03-06T03:27:58.942Z,97488.00
2023-03-06T03:29:00.902Z,97492.47
2023-03-06T03:30:02.195Z,97478.59
2023-03-06T03:31:04.482Z,97479.13
2023-03-06T03:32:06.165Z,97486.69
2023-03-06T03:33:07.960Z,97482.53
2023-03-06T03:34:09.534Z,97476.78
2023-03-06T03:35:13.412Z,97476.22
2023-03-06T03:36:15.426Z,97471.28
2023-03-06T03:37:20.199Z,97479.91
2023-03-06T03:38:21.446Z,97477.53
2023-03-06T03:39:22.700Z,97480.44
2023-03-06T03:40:24.054Z,97480.44
2023-03-06T03:41:25.900Z,97475.22
2023-03-06T03:42:27.154Z,97474.16
2023-03-06T03:43:28.944Z,97478.88
2023-03-06T03:44:30.732Z,97472.09
2023-03-06T03:45:32.488Z,97472.09
2023-03-06T03:46:33.991Z,97474.72
2023-03-06T03:47:36.667Z,97467.38
2023-03-06T03:48:37.948Z,97474.41
2023-03-06T03:49:40.158Z,97466.06
2023-03-06T03:50:41.678Z,97476.00
2023-03-06T03:51:43.051Z,97475.50
2023-03-06T03:52:44.552Z,97469.75
2023-03-06T03:53:47.109Z,97477.34
2023-03-06T03:54:51.762Z,97476.28
2023-03-06T03:55:53.048Z,97472.34
2023-03-06T03:56:55.699Z,97471.09
2023-03-06T03:58:04.411Z,97471.34
2023-03-06T03:59:06.280Z,97470.56
2023-03-06T04:00:14.163Z,97467.94
2023-03-06T04:01:15.415Z,97473.47
2023-03-06T04:02:16.911Z,97472.19
2023-03-06T04:03:26.229Z,97463.81
2023-03-06T04:04:27.518Z,97462.75
2023-03-06T04:05:28.858Z,97455.47
2023-03-06T04:06:30.493Z,97452.34
2023-03-06T04:07:31.740Z,97452.63
2023-03-06T04:08:32.984Z,97455.22
2023-03-06T04:09:34.405Z,97458.63
2023-03-06T04:10:35.625Z,97457.06
2023-03-06T04:11:37.477Z,97456.28
2023-03-06T04:12:38.984Z,97453.66
2023-03-06T04:13:40.375Z,97446.88
2023-03-06T04:14:41.919Z,97447.91
2023-03-06T04:15:43.243Z,97446.66
2023-03-06T04:16:45.513Z,97451.09
2023-03-06T04:17:47.082Z,97448.72
2023-03-06T04:18:51.774Z,97450.56
2023-03-06T04:19:55.129Z,97453.97
2023-03-06T04:20:57.239Z,97450.56
2023-03-06T04:21:58.562Z,97442.72
2023-03-06T04:23:00.320Z,97443.78
2023-03-06T04:24:01.665Z,97446.41
2023-03-06T04:25:02.985Z,97448.25
2023-03-06T04:26:04.644Z,97445.63
2023-03-06T04:27:05.907Z,97446.69
2023-03-06T04:28:07.497Z,97448.53
2023-03-06T04:29:08.937Z,97447.75
2023-03-06T04:30:10.641Z,97446.94
2023-03-06T04:31:12.618Z,97444.59
2023-03-06T04:32:14.137Z,97443.53
2023-03-06T04:33:15.453Z,97440.16
2023-03-06T04:34:17.696Z,97435.69
2023-03-06T04:35:20.131Z,97443.81
2023-03-06T04:36:31.658Z,97434.91
2023-03-06T04:37:36.936Z,97431.81
2023-03-06T04:38:38.727Z,97433.91
2023-03-06T04:39:40.147Z,97431.56
2023-03-06T04:40:42.927Z,97426.34
2023-03-06T04:41:45.148Z,97430.00
2023-03-06T04:42:46.464Z,97430.78
2023-03-06T04:43:47.777Z,97434.19
2023-03-06T04:44:48.988Z,97432.63
2023-03-06T04:45:50.342Z,97427.41
2023-03-06T04:46:51.573Z,97434.19
2023-03-06T04:47:52.851Z,97429.22
2023-03-06T04:48:54.126Z,97430.78
2023-03-06T04:49:55.390Z,97427.13
2023-03-06T04:50:56.618Z,97425.56
2023-03-06T04:51:57.928Z,97426.63
2023-03-06T04:53:00.707Z,97426.34
2023-03-06T04:54:02.387Z,97422.94
2023-03-06T04:55:03.852Z,97427.13
2023-03-06T04:56:05.760Z,97430.50
2023-03-06T04:57:06.965Z,97429.44
2023-03-06T04:58:08.210Z,97431.03
2023-03-06T04:59:09.423Z,97420.06
2023-03-06T05:00:15.664Z,97429.44
2023-03-06T05:01:17.014Z,97426.00
2023-03-06T05:02:18.388Z,97426.28
2023-03-06T05:03:19.721Z,97429.69
2023-03-06T05:04:21.025Z,97422.91
2023-03-06T05:05:22.217Z,97424.47
2023-03-06T05:06:23.461Z,97420.53
2023-03-06T05:07:24.755Z,97423.16
2023-03-06T05:08:25.948Z,97427.59
2023-03-06T05:09:27.137Z,97418.69
2023-03-06T05:10:28.378Z,97423.94
2023-03-06T05:11:29.670Z,97425.00
2023-03-06T05:12:30.941Z,97423.41
2023-03-06T05:13:32.324Z,97420.78
2023-03-06T05:14:33.573Z,97419.22
2023-03-06T05:15:34.924Z,97417.41
2023-03-06T05:16:36.233Z,97424.47
2023-03-06T05:17:37.608Z,97419.22
2023-03-06T05:18:38.856Z,97415.06
2023-03-06T05:19:40.162Z,97416.91
2023-03-06T05:20:41.495Z,97418.16
2023-03-06T05:21:42.760Z,97415.84
2023-03-06T05:22:44.193Z,97420.00
2023-03-06T05:23:45.431Z,97424.47
2023-03-06T05:24:46.870Z,97421.84
2023-03-06T05:25:48.082Z,97417.69
2023-03-06T05:26:49.265Z,97421.59
2023-03-06T05:27:50.503Z,97419.75
2023-03-06T05:28:51.856Z,97421.81
2023-03-06T05:29:53.266Z,97419.19
2023-03-06T05:30:54.461Z,97423.38
2023-03-06T05:31:55.836Z,97424.16
2023-03-06T05:32:57.197Z,97417.34
2023-03-06T05:33:58.521Z,97416.56
2023-03-06T05:34:59.854Z,97413.47
2023-03-06T05:36:01.174Z,97411.63
2023-03-06T05:37:02.422Z,97413.19
2023-03-06T05:38:04.054Z,97410.56
2023-03-06T05:39:05.384Z,97412.41
2023-03-06T05:40:06.934Z,97412.13
2023-03-06T05:41:10.711Z,97407.19
2023-03-06T05:42:11.956Z,97412.41
2023-03-06T05:43:13.204Z,97407.19
2023-03-06T05:44:14.441Z,97408.25
2023-03-06T05:45:15.736Z,97413.47
2023-03-06T05:46:17.035Z,97406.69
2023-03-06T05:47:18.357Z,97411.91
2023-03-06T05:48:19.561Z,97409.28
2023-03-06T05:49:20.804Z,97413.47
2023-03-06T05:50:22.141Z,97405.63
2023-03-06T05:51:23.784Z,97414.25
2023-03-06T05:52:25.016Z,97409.28
2023-03-06T05:53:26.341Z,97405.63
2023-03-06T05:54:27.580Z,97409.00
2023-03-06T05:55:28.927Z,97409.00
2023-03-06T05:56:30.266Z,97403.50
2023-03-06T05:57:31.619Z,97402.72
2023-03-06T05:58:32.970Z,97406.13
2023-03-06T05:59:34.353Z,97406.91
2023-03-06T06:00:35.943Z,97404.03
2023-03-06T06:01:37.352Z,97402.44
2023-03-06T06:02:38.734Z,97404.28
2023-03-06T06:03:40.273Z,97399.81
2023-03-06T06:04:41.532Z,97399.03
2023-03-06T06:05:42.773Z,97408.47
2023-03-06T06:06:44.012Z,97405.56
2023-03-06T06:07:45.261Z,97402.19
2023-03-06T06:08:46.536Z,97402.97
2023-03-06T06:09:47.748Z,97407.41
2023-03-06T06:10:50.943Z,97406.06
2023-03-06T06:11:54.295Z,97399.81
2023-03-06T06:12:55.544Z,97405.81
2023-03-06T06:13:56.749Z,97410.28
2023-03-06T06:14:58.069Z,97403.97
2023-03-06T06:15:59.326Z,97409.22
2023-03-06T06:17:00.640Z,97408.44
2023-03-06T06:18:01.877Z,97407.66
2023-03-06T06:19:03.238Z,97412.88
2023-03-06T06:20:04.659Z,97405.53
2023-03-06T06:21:06.609Z,97402.91
2023-03-06T06:22:07.851Z,97404.19
2023-03-06T06:23:10.597Z,97406.56
2023-03-06T06:24:12.050Z,97405.50
2023-03-06T06:25:13.684Z,97402.88
2023-03-06T06:26:14.958Z,97402.09
2023-03-06T06:27:16.214Z,97404.72
2023-03-06T06:28:17.452Z,97402.88
2023-03-06T06:29:18.800Z,97403.94
2023-03-06T06:30:20.265Z,97411.50
2023-03-06T06:31:21.523Z,97406.28
2023-03-06T06:32:22.855Z,97408.59
2023-03-06T06:33:24.109Z,97400.75
2023-03-06T06:34:25.931Z,97402.84
2023-03-06T06:35:27.180Z,97416.69
2023-03-06T06:36:28.565Z,97416.16
2023-03-06T06:37:30.171Z,97420.31
2023-03-06T06:38:31.683Z,97412.19
2023-03-06T06:39:32.962Z,97410.88
2023-03-06T06:40:34.668Z,97414.25
2023-03-06T06:41:53.666Z,97416.59
2023-03-06T06:42:57.271Z,97412.88
2023-03-06T06:43:59.119Z,97414.22
2023-03-06T06:45:00.492Z,97409.75
2023-03-06T06:46:24.208Z,97412.38
2023-03-06T06:47:25.056Z,97408.44
2023-03-06T06:48:26.916Z,97411.84
2023-03-06T06:49:28.225Z,97411.00
2023-03-06T06:50:29.636Z,97405.78
2023-03-06T06:51:31.276Z,97412.03
2023-03-06T06:52:32.553Z,97408.41
2023-03-06T06:53:33.749Z,97409.66
2023-03-06T06:54:35.016Z,97409.38
2023-03-06T06:55:36.835Z,97408.84
2023-03-06T06:56:38.317Z,97403.59
2023-03-06T06:57:40.173Z,97414.84
2023-03-06T06:58:41.396Z,97416.41
2023-03-06T06:59:42.643Z,97414.59
2023-03-06T07:00:43.977Z,97417.94
2023-03-06T07:01:45.279Z,97418.72
2023-03-06T07:02:46.596Z,97418.91
2023-03-06T07:03:47.964Z,97413.13
2023-03-06T07:05:03.054Z,97408.41
2023-03-06T07:06:05.945Z,97416.03
2023-03-06T07:07:07.169Z,97414.97
2023-03-06T07:08:08.848Z,97415.75
2023-03-06T07:09:10.638Z,97418.91
2023-03-06T07:10:14.067Z,97415.25
2023-03-06T07:11:16.706Z,97414.97
2023-03-06T07:12:17.919Z,97418.66
2023-03-06T07:13:19.370Z,97414.19
2023-03-06T07:14:20.606Z,97421.28
2023-03-06T07:15:21.969Z,97422.53
2023-03-06T07:16:23.305Z,97425.94
2023-03-06T07:17:24.652Z,97422.78
2023-03-06T07:18:25.887Z,97421.72
2023-03-06T07:19:27.082Z,97417.25
2023-03-06T07:20:28.422Z,97420.94
2023-03-06T07:21:29.772Z,97417.78
2023-03-06T07:22:41.424Z,97419.03
2023-03-06T07:23:49.959Z,97425.06
2023-03-06T07:24:51.175Z,97425.00
2023-03-06T07:25:53.164Z,97426.56
2023-03-06T07:26:54.463Z,97427.84
2023-03-06T07:27:55.682Z,97429.41
2023-03-06T07:28:56.896Z,97432.25
2023-03-06T07:29:58.182Z,97431.97
2023-03-06T07:30:59.642Z,97428.03
2023-03-06T07:32:00.958Z,97424.56
2023-03-06T07:33:02.290Z,97432.38
2023-03-06T07:34:04.995Z,97432.84
2023-03-06T07:35:19.805Z,97427.84
2023-03-06T07:36:22.869Z,97430.16
2023-03-06T07:37:24.089Z,97432.25
2023-03-06T07:38:25.402Z,97429.34
2023-03-06T07:39:26.657Z,97431.16
2023-03-06T07:40:27.998Z,97438.78
2023-03-06T07:41:29.304Z,97440.81
2023-03-06T07:42:30.666Z,97434.19
2023-03-06T07:43:35.768Z,97439.13
2023-03-06T07:44:40.786Z,97439.97
2023-03-06T07:45:42.052Z,97447.78
2023-03-06T07:46:43.278Z,97439.91
2023-03-06T07:47:45.182Z,97441.47
2023-03-06T07:48:46.412Z,97445.66
2023-03-06T07:49:47.672Z,97439.06
2023-03-06T07:50:54.849Z,97441.91
2023-03-06T07:51:56.355Z,97445.03
2023-03-06T07:52:57.558Z,97456.03
2023-03-06T07:53:58.802Z,97450.50
2023-03-06T07:55:00.144Z,97454.66
2023-03-06T07:56:03.188Z,97453.88
2023-03-06T07:57:04.393Z,97445.25
2023-03-06T07:58:05.586Z,97447.31
2023-03-06T07:59:06.845Z,97446.25
2023-03-06T08:00:09.987Z,97444.63
2023-03-06T08:01:18.543Z,97452.97
2023-03-06T08:02:19.773Z,97443.50
2023-03-06T08:03:21.030Z,97446.34
2023-03-06T08:04:22.325Z,97452.00
2023-03-06T08:05:23.512Z,97455.31
2023-03-06T08:06:25.534Z,97449.81
2023-03-06T08:07:28.476Z,97452.34
2023-03-06T08:08:29.701Z,97455.16
2023-03-06T08:09:31.282Z,97456.16
2023-03-06T08:10:32.745Z,97450.06
2023-03-06T08:11:33.936Z,97450.59
2023-03-06T08:12:35.223Z,97449.44
2023-03-06T08:13:36.494Z,97448.84
2023-03-06T08:14:37.718Z,97446.44
2023-03-06T08:15:38.892Z,97449.84
2023-03-06T08:16:40.215Z,97450.03
2023-03-06T08:17:41.491Z,97448.19
2023-03-06T08:18:45.065Z,97444.03
2023-03-06T08:19:47.380Z,97450.75
2023-03-06T08:20:48.601Z,97448.56
2023-03-06T08:21:49.781Z,97447.69
2023-03-06T08:22:51.088Z,97446.88
2023-03-06T08:23:52.769Z,97452.66
2023-03-06T08:24:54.993Z,97453.63
2023-03-06T08:25:57.404Z,97447.31
2023-03-06T08:26:58.619Z,97451.41
2023-03-06T08:28:00.477Z,97451.91
2023-03-06T08:29:02.162Z,97451.31
2023-03-06T08:30:03.745Z,97449.69
2023-03-06T08:31:23.632Z,97437.22
2023-03-06T08:32:24.980Z,97444.53
2023-03-06T08:33:26.224Z,97442.41
2023-03-06T08:34:27.467Z,97439.97
2023-03-06T08:35:28.771Z,97451.25
2023-03-06T08:36:30.270Z,97456.63
2023-03-06T08:37:31.563Z,97450.59
2023-03-06T08:38:32.838Z,97456.53
2023-03-06T08:39:34.043Z,97459.72
2023-03-06T08:40:35.278Z,97451.06
2023-03-06T08:41:36.974Z,97453.59
2023-03-06T08:42:38.197Z,97460.06
2023-03-06T08:43:39.415Z,97453.41
2023-03-06T08:44:40.718Z,97459.34
2023-03-06T08:45:42.018Z,97458.56
2023-03-06T08:46:43.294Z,97459.94
2023-03-06T08:47:44.606Z,97461.41
2023-03-06T08:48:45.851Z,97453.81
2023-03-06T08:49:47.393Z,97455.28
2023-03-06T08:50:48.847Z,97457.03
2023-03-06T08:51:50.092Z,97458.56
2023-03-06T08:52:51.290Z,97458.88
2023-03-06T08:53:52.581Z,97464.13
2023-03-06T08:54:53.827Z,97464.91
2023-03-06T08:55:55.109Z,97463.56
2023-03-06T08:56:56.332Z,97461.97
2023-03-06T08:57:57.524Z,97465.31
2023-03-06T08:58:59.996Z,97465.69
2023-03-06T09:00:01.288Z,97461.72
2023-03-06T09:01:02.606Z,97464.59
2023-03-06T09:02:03.925Z,97471.34
2023-03-06T09:03:05.686Z,97465.50
2023-03-06T09:04:08.586Z,97461.31
2023-03-06T09:05:09.892Z,97466.28
2023-03-06T09:06:11.583Z,97461.22
2023-03-06T09:07:12.814Z,97472.22
2023-03-06T09:08:14.068Z,97464.16
2023-03-06T09:09:15.461Z,97464.34
2023-03-06T09:10:18.579Z,97462.66
2023-03-06T09:11:20.512Z,97466.97
2023-03-06T09:12:21.743Z,97470.28
2023-03-06T09:13:22.976Z,97474.44
2023-03-06T09:14:24.246Z,97470.84
2023-03-06T09:15:25.704Z,97466.09
2023-03-06T09:16:27.041Z,97470.16
2023-03-06T09:17:28.286Z,97475.63
2023-03-06T09:18:29.586Z,97470.84
2023-03-06T09:19:30.840Z,97469.75
2023-03-06T09:20:32.427Z,97473.78
2023-03-06T09:21:33.650Z,97467.22
2023-03-06T09:22:35.421Z,97469.59
2023-03-06T09:23:37.557Z,97464.81
2023-03-06T09:24:38.890Z,97468.63
2023-03-06T09:25:40.145Z,97467.13
2023-03-06T09:26:46.223Z,97466.19
2023-03-06T09:27:55.458Z,97473.31
2023-03-06T09:29:03.285Z,97471.44
2023-03-06T09:30:05.896Z,97475.63
2023-03-06T09:31:08.255Z,97468.72
2023-03-06T09:32:11.807Z,97472.22
2023-03-06T09:33:13.350Z,97476.31
2023-03-06T09:34:14.653Z,97474.25
2023-03-06T09:35:15.872Z,97475.03
2023-03-06T09:36:18.429Z,97472.59
2023-03-06T09:37:19.689Z,97478.56
2023-03-06T09:38:22.129Z,97473.78
2023-03-06T09:39:23.623Z,97476.50
2023-03-06T09:40:43.737Z,97476.88
2023-03-06T09:41:46.556Z,97474.84
2023-03-06T09:42:47.766Z,97473.84
2023-03-06T09:43:50.362Z,97475.03
2023-03-06T09:44:54.331Z,97477.94
2023-03-06T09:45:56.354Z,97478.44
2023-03-06T09:47:18.788Z,97469.38
2023-03-06T09:48:22.303Z,97472.69
2023-03-06T09:49:32.652Z,97474.06
2023-03-06T09:50:50.966Z,97472.78
2023-03-06T09:51:54.996Z,97477.94
2023-03-06T09:53:15.063Z,97466.34
2023-03-06T09:54:16.564Z,97474.41
2023-03-06T09:55:19.218Z,97474.53
2023-03-06T09:56:22.106Z,97475.91
2023-03-06T09:57:26.502Z,97475.91
2023-03-06T09:58:29.044Z,97481.16
2023-03-06T09:59:31.402Z,97481.34
2023-03-06T10:00:38.666Z,97476.28
2023-03-06T10:01:41.904Z,97475.41
2023-03-06T10:02:49.336Z,97476.69
2023-03-06T10:03:54.011Z,97474.34
2023-03-06T10:05:01.458Z,97473.88
2023-03-06T10:06:09.277Z,97475.31
2023-03-06T10:07:13.828Z,97480.47
2023-03-06T10:08:44.325Z,97482.81
2023-03-06T10:09:48.133Z,97476.69
2023-03-06T10:11:00.014Z,97472.78
2023-03-06T10:12:04.508Z,97477.28
2023-03-06T10:13:11.539Z,97481.66
2023-03-06T10:14:18.709Z,97475.91
2023-03-06T10:15:23.921Z,97474.25
2023-03-06T10:16:27.288Z,97477.84
2023-03-06T10:17:33.874Z,97474.16
2023-03-06T10:18:35.065Z,97473.38
2023-03-06T10:19:37.243Z,97479.63
2023-03-06T10:20:47.658Z,97471.25
2023-03-06T10:22:09.890Z,97477.28
2023-03-06T10:23:29.831Z,97479.31
2023-03-06T10:24:50.427Z,97476.69
2023-03-06T10:25:51.622Z,97475.44
2023-03-06T10:26:59.139Z,97475.03
2023-03-06T10:28:08.873Z,97471.53
2023-03-06T10:29:13.105Z,97476.69
2023-03-06T10:30:23.656Z,97468.03
2023-03-06T10:31:26.146Z,97470.66
2023-03-06T10:32:39.483Z,97476.22
2023-03-06T10:33:52.530Z,97473.59
2023-03-06T10:34:54.835Z,97471.63
2023-03-06T10:35:56.494Z,97466.38
2023-03-06T10:36:58.462Z,97469.31
2023-03-06T10:38:12.860Z,97478.34
2023-03-06T10:39:16.145Z,97470.56
2023-03-06T10:40:20.139Z,97470.75
2023-03-06T10:41:21.372Z,97470.28
2023-03-06T10:42:23.591Z,97477.47
2023-03-06T10:43:24.828Z,97473.97
2023-03-06T10:44:26.040Z,97469.31
2023-03-06T10:45:27.946Z,97471.53
2023-03-06T10:46:31.527Z,97469.56
2023-03-06T10:47:33.185Z,97471.00
2023-03-06T10:48:35.143Z,97470.63
2023-03-06T10:49:37.437Z,97466.56
2023-03-06T10:50:38.717Z,97472.19
2023-03-06T10:51:40.023Z,97470.94
2023-03-06T10:52:41.304Z,97474.41
2023-03-06T10:53:51.578Z,97473.84
2023-03-06T10:55:04.805Z,97470.97
2023-03-06T10:56:06.042Z,97469.56
2023-03-06T10:57:26.004Z,97468.56
2023-03-06T10:58:29.217Z,97472.09
2023-03-06T10:59:30.421Z,97471.63
2023-03-06T11:00:32.933Z,97473.53
2023-03-06T11:01:34.776Z,97468.63
2023-03-06T11:02:37.388Z,97468.41
2023-03-06T11:03:38.577Z,97467.81
2023-03-06T11:04:41.035Z,97468.22
2023-03-06T11:06:00.854Z,97460.22
2023-03-06T11:07:04.860Z,97465.19
2023-03-06T11:08:19.556Z,97464.75
2023-03-06T11:09:24.811Z,97468.84
2023-03-06T11:10:26.845Z,97466.84
2023-03-06T11:11:37.116Z,97459.78
2023-03-06T11:12:40.071Z,97464.75
2023-03-06T11:13:42.592Z,97465.22
2023-03-06T11:14:43.887Z,97463.19
2023-03-06T11:16:02.379Z,97466.16
2023-03-06T11:17:03.666Z,97463.16
2023-03-06T11:18:23.991Z,97461.00
2023-03-06T11:19:27.036Z,97462.03
2023-03-06T11:20:48.591Z,97463.13
2023-03-06T11:22:00.932Z,97458.44
2023-03-06T11:23:02.175Z,97461.53
2023-03-06T11:24:11.564Z,97460.13
2023-03-06T11:25:17.605Z,97457.53
2023-03-06T11:26:24.416Z,97456.47
2023-03-06T11:27:29.095Z,97451.53
2023-03-06T11:28:33.306Z,97454.53
2023-03-06T11:29:39.884Z,97455.69
2023-03-06T11:30:43.805Z,97461.03
2023-03-06T11:31:52.465Z,97460.13
2023-03-06T11:32:57.314Z,97455.31
2023-03-06T11:34:04.291Z,97457.19
2023-03-06T11:35:09.839Z,97459.88
2023-03-06T11:36:23.523Z,97452.91
2023-03-06T11:37:28.995Z,97456.91
2023-03-06T11:38:38.652Z,97446.69
2023-03-06T11:39:56.482Z,97448.09
2023-03-06T11:40:59.874Z,97438.25
2023-03-06T11:42:05.194Z,97441.84
2023-03-06T11:43:18.870Z,97440.63
2023-03-06T11:44:25.542Z,97432.56
2023-03-06T11:45:29.954Z,97441.78
2023-03-06T11:46:36.513Z,97435.59
2023-03-06T11:47:53.953Z,97433.41
2023-03-06T11:49:05.110Z,97436.03
2023-03-06T11:50:21.487Z,97429.81
2023-03-06T11:51:31.257Z,97425.63
2023-03-06T11:52:43.027Z,97425.81
2023-03-06T11:53:44.319Z,97423.19
2023-03-06T11:54:47.780Z,97419.91
2023-03-06T11:56:14.197Z,97425.47
2023-03-06T11:57:17.519Z,97424.56
2023-03-06T11:58:36.589Z,97418.00
2023-03-06T11:59:55.899Z,97420.81
2023-03-06T12:01:00.133Z,97419.44
2023-03-06T12:02:20.248Z,97415.28
2023-03-06T12:03:21.432Z,97419.78
2023-03-06T12:04:33.822Z,97411.72
2023-03-06T12:05:38.223Z,97415.59
2023-03-06T12:06:39.506Z,97416.06
2023-03-06T12:07:56.700Z,97417.47
2023-03-06T12:09:09.693Z,97410.16
2023-03-06T12:10:18.668Z,97413.03
2023-03-06T12:11:24.199Z,97417.69
2023-03-06T12:12:25.400Z,97411.78
2023-03-06T12:13:33.913Z,97419.84
2023-03-06T12:14:42.479Z,97412.25
2023-03-06T12:15:51.801Z,97412.25
2023-03-06T12:17:13.440Z,97409.13
2023-03-06T12:18:20.807Z,97406.19
2023-03-06T12:19:27.725Z,97403.38
2023-03-06T12:20:31.966Z,97415.50
2023-03-06T12:21:51.408Z,97414.59
2023-03-06T12:22:58.218Z,97409.59